LYSM weather

Veliki Radinci Airfield
Sremska Mitrovica, Srem, Serbia

Public forecast

Using degrees Celsius for public forecast. Weather courtesy of forecast.io.

Closest aviation weather report (METAR) to Veliki Radinci Airfield

Closest report is Batajnica Air Base, 26.1 nm (48.3 km) ESE. Retrieved 2020/07/04 15:30 UTC (5 minutes ago):

LYBT 041530Z 28007KT CAVOK 26/18 Q1014 NOSIG

Closest aviation forecast (TAF) to Veliki Radinci Airfield

Closest forecast is Batajnica Air Base, 26.1 nm (48.3 km) ESE. Retrieved 2020/07/04 12:00 UTC (4 hours ago):

TAF LYBT 041100Z 0412/0512 29006KT 9999 SCT033 TX26/0414Z TN19/0504Z PROB30 TEMPO 0412/0417 5000 TSRA SCT030CB SCT040